FAHS/HDS METAR and TAF weather

Enter ICAO airport designator
Station Type Date Time Source
FAHS METAR 2021/08/01 17:00 UTC NOAA

FAHS 011700Z AUTO 01005KT //// // ////// 19/00 Q1023


Station Type Date Time Source
FAHS Decoded METAR 2021/08/01 17:00 UTC NOAA

Hoedspruit, South Africa (FAHS) 24-22S 031-02E 500M
Aug 01, 2021 - 01:00 PM EDT / 2021.08.01 1700 UTC
Wind: from the N (010 degrees) at 6 MPH (5 KT):0
Temperature: 66 F (19 C)
Dew Point: 32 F (0 C)
Relative Humidity: 27%
Pressure (altimeter): 30.21 in. Hg (1023 hPa)
ob: FAHS 011700Z AUTO 01005KT //// // ////// 19/00 Q1023
cycle: 17

Station Type Date Time Source
FAHS TAF 2017/05/23 04:01 UTC NOAA

TAF FAHS 230300Z 2304/2315 VRB02KT CAVOK TX29/2312ZTN12/2304Z

Example: see airport list